sensor_id;sensor_type;location;lat;lon;timestamp;temperature;humidity
31733;DHT22;18312;51.486;7.144;2022-08-21T00:00:28;17.30;99.90
31733;DHT22;18312;51.486;7.144;2022-08-21T00:03:00;17.30;99.90
31733;DHT22;18312;51.486;7.144;2022-08-21T00:05:36;17.30;99.90
31733;DHT22;18312;51.486;7.144;2022-08-21T00:08:04;17.30;99.90
31733;DHT22;18312;51.486;7.144;2022-08-21T00:10:32;17.20;99.90
31733;DHT22;18312;51.486;7.144;2022-08-21T00:13:00;17.20;99.90
31733;DHT22;18312;51.486;7.144;2022-08-21T00:15:28;17.30;99.90
31733;DHT22;18312;51.486;7.144;2022-08-21T00:17:57;17.30;99.90
31733;DHT22;18312;51.486;7.144;2022-08-21T00:20:24;17.20;99.90
31733;DHT22;18312;51.486;7.144;2022-08-21T00:22:51;17.10;99.90
31733;DHT22;18312;51.486;7.144;2022-08-21T00:25:20;16.90;99.90
31733;DHT22;18312;51.486;7.144;2022-08-21T00:27:49;16.80;99.90
31733;DHT22;18312;51.486;7.144;2022-08-21T00:30:18;16.80;99.90
31733;DHT22;18312;51.486;7.144;2022-08-21T00:32:45;16.70;99.90
31733;DHT22;18312;51.486;7.144;2022-08-21T00:35:19;16.60;99.90
31733;DHT22;18312;51.486;7.144;2022-08-21T00:37:47;16.60;99.90
31733;DHT22;18312;51.486;7.144;2022-08-21T00:40:19;16.50;99.90
31733;DHT22;18312;51.486;7.144;2022-08-21T00:42:46;16.50;99.90
31733;DHT22;18312;51.486;7.144;2022-08-21T00:45:13;16.50;99.90
31733;DHT22;18312;51.486;7.144;2022-08-21T00:47:40;16.40;99.90
31733;DHT22;18312;51.486;7.144;2022-08-21T00:50:13;16.30;99.90
31733;DHT22;18312;51.486;7.144;2022-08-21T00:52:41;16.30;99.90
31733;DHT22;18312;51.486;7.144;2022-08-21T00:55:10;16.30;99.90
31733;DHT22;18312;51.486;7.144;2022-08-21T00:57:43;16.30;99.90
31733;DHT22;18312;51.486;7.144;2022-08-21T01:00:15;16.40;99.90
31733;DHT22;18312;51.486;7.144;2022-08-21T01:02:50;16.40;99.90
31733;DHT22;18312;51.486;7.144;2022-08-21T01:05:16;16.50;99.90
31733;DHT22;18312;51.486;7.144;2022-08-21T01:07:47;16.50;99.90
31733;DHT22;18312;51.486;7.144;2022-08-21T01:10:14;16.50;99.90
31733;DHT22;18312;51.486;7.144;2022-08-21T01:12:42;16.60;99.90
31733;DHT22;18312;51.486;7.144;2022-08-21T01:15:11;16.60;99.90
31733;DHT22;18312;51.486;7.144;2022-08-21T01:17:40;16.60;99.90
31733;DHT22;18312;51.486;7.144;2022-08-21T01:20:10;16.50;99.90
31733;DHT22;18312;51.486;7.144;2022-08-21T01:22:44;16.50;99.90
31733;DHT22;18312;51.486;7.144;2022-08-21T01:25:15;16.50;99.90
31733;DHT22;18312;51.486;7.144;2022-08-21T01:27:42;16.50;99.90
31733;DHT22;18312;51.486;7.144;2022-08-21T01:30:12;16.40;99.90
31733;DHT22;18312;51.486;7.144;2022-08-21T01:32:46;16.40;99.90
31733;DHT22;18312;51.486;7.144;2022-08-21T01:35:19;16.30;99.90
31733;DHT22;18312;51.486;7.144;2022-08-21T01:37:48;16.20;99.90
31733;DHT22;18312;51.486;7.144;2022-08-21T01:40:15;16.10;99.90
31733;DHT22;18312;51.486;7.144;2022-08-21T01:42:43;16.10;99.90
31733;DHT22;18312;51.486;7.144;2022-08-21T01:45:12;15.90;99.90
31733;DHT22;18312;51.486;7.144;2022-08-21T01:47:39;15.80;99.90
31733;DHT22;18312;51.486;7.144;2022-08-21T01:50:08;15.70;99.90
31733;DHT22;18312;51.486;7.144;2022-08-21T01:52:40;15.60;99.90
31733;DHT22;18312;51.486;7.144;2022-08-21T01:55:09;15.60;99.90
31733;DHT22;18312;51.486;7.144;2022-08-21T01:57:36;15.50;99.90
31733;DHT22;18312;51.486;7.144;2022-08-21T02:00:05;15.40;99.90
31733;DHT22;18312;51.486;7.144;2022-08-21T02:02:32;15.30;99.90
31733;DHT22;18312;51.486;7.144;2022-08-21T02:04:58;15.30;99.90
31733;DHT22;18312;51.486;7.144;2022-08-21T02:07:25;15.20;99.90
31733;DHT22;18312;51.486;7.144;2022-08-21T02:09:52;15.20;99.90
31733;DHT22;18312;51.486;7.144;2022-08-21T02:12:20;15.20;99.90
31733;DHT22;18312;51.486;7.144;2022-08-21T02:14:47;15.30;99.90
31733;DHT22;18312;51.486;7.144;2022-08-21T02:17:14;15.30;99.90
31733;DHT22;18312;51.486;7.144;2022-08-21T02:19:40;15.30;99.90
31733;DHT22;18312;51.486;7.144;2022-08-21T02:22:08;15.20;99.90
31733;DHT22;18312;51.486;7.144;2022-08-21T02:24:38;15.10;99.90
31733;DHT22;18312;51.486;7.144;2022-08-21T02:27:05;15.00;99.90
31733;DHT22;18312;51.486;7.144;2022-08-21T02:29:33;15.00;99.90
31733;DHT22;18312;51.486;7.144;2022-08-21T02:32:03;14.90;99.90
31733;DHT22;18312;51.486;7.144;2022-08-21T02:34:29;14.80;99.90
31733;DHT22;18312;51.486;7.144;2022-08-21T02:36:56;14.80;99.90
31733;DHT22;18312;51.486;7.144;2022-08-21T02:39:23;14.70;99.90
31733;DHT22;18312;51.486;7.144;2022-08-21T02:41:49;14.60;99.90
31733;DHT22;18312;51.486;7.144;2022-08-21T02:44:16;14.70;99.90
31733;DHT22;18312;51.486;7.144;2022-08-21T02:46:44;14.60;99.90
31733;DHT22;18312;51.486;7.144;2022-08-21T02:49:11;14.50;99.90
31733;DHT22;18312;51.486;7.144;2022-08-21T02:51:38;14.50;99.90
31733;DHT22;18312;51.486;7.144;2022-08-21T02:54:10;14.50;99.90
31733;DHT22;18312;51.486;7.144;2022-08-21T02:56:40;14.50;99.90
31733;DHT22;18312;51.486;7.144;2022-08-21T02:59:09;14.60;99.90
31733;DHT22;18312;51.486;7.144;2022-08-21T03:01:36;14.60;99.90
31733;DHT22;18312;51.486;7.144;2022-08-21T03:04:04;14.60;99.90
31733;DHT22;18312;51.486;7.144;2022-08-21T03:06:33;14.50;99.90
31733;DHT22;18312;51.486;7.144;2022-08-21T03:09:00;14.40;99.90
31733;DHT22;18312;51.486;7.144;2022-08-21T03:11:26;14.40;99.90
31733;DHT22;18312;51.486;7.144;2022-08-21T03:13:53;14.30;99.90
31733;DHT22;18312;51.486;7.144;2022-08-21T03:16:20;14.30;99.90
31733;DHT22;18312;51.486;7.144;2022-08-21T03:18:47;14.30;99.90
31733;DHT22;18312;51.486;7.144;2022-08-21T03:21:15;14.30;99.90
31733;DHT22;18312;51.486;7.144;2022-08-21T03:23:47;14.20;99.90
31733;DHT22;18312;51.486;7.144;2022-08-21T03:26:13;14.20;99.90
31733;DHT22;18312;51.486;7.144;2022-08-21T03:28:40;14.10;99.90
31733;DHT22;18312;51.486;7.144;2022-08-21T03:31:07;14.10;99.90
31733;DHT22;18312;51.486;7.144;2022-08-21T03:33:34;14.00;99.90
31733;DHT22;18312;51.486;7.144;2022-08-21T03:36:03;14.10;99.90
31733;DHT22;18312;51.486;7.144;2022-08-21T03:38:33;14.10;99.90
31733;DHT22;18312;51.486;7.144;2022-08-21T03:41:00;14.20;99.90
31733;DHT22;18312;51.486;7.144;2022-08-21T03:43:28;14.20;99.90
31733;DHT22;18312;51.486;7.144;2022-08-21T03:45:54;14.20;99.90
31733;DHT22;18312;51.486;7.144;2022-08-21T03:48:21;14.20;99.90
31733;DHT22;18312;51.486;7.144;2022-08-21T03:50:55;14.10;99.90
31733;DHT22;18312;51.486;7.144;2022-08-21T03:53:22;14.10;99.90
31733;DHT22;18312;51.486;7.144;2022-08-21T03:55:53;14.10;99.90
31733;DHT22;18312;51.486;7.144;2022-08-21T03:58:22;14.10;99.90
31733;DHT22;18312;51.486;7.144;2022-08-21T04:00:51;14.10;99.90
31733;DHT22;18312;51.486;7.144;2022-08-21T04:03:18;14.10;99.90
31733;DHT22;18312;51.486;7.144;2022-08-21T04:05:45;14.10;99.90
31733;DHT22;18312;51.486;7.144;2022-08-21T04:08:14;14.00;99.90
31733;DHT22;18312;51.486;7.144;2022-08-21T04:10:42;13.90;99.90
31733;DHT22;18312;51.486;7.144;2022-08-21T04:13:13;13.80;99.90
31733;DHT22;18312;51.486;7.144;2022-08-21T04:15:41;13.90;99.90
31733;DHT22;18312;51.486;7.144;2022-08-21T04:18:10;13.80;99.90
31733;DHT22;18312;51.486;7.144;2022-08-21T04:20:37;13.80;99.90
31733;DHT22;18312;51.486;7.144;2022-08-21T04:23:04;13.70;99.90
31733;DHT22;18312;51.486;7.144;2022-08-21T04:25:34;13.80;99.90
31733;DHT22;18312;51.486;7.144;2022-08-21T04:28:01;13.90;99.90
31733;DHT22;18312;51.486;7.144;2022-08-21T04:30:30;13.90;99.90
31733;DHT22;18312;51.486;7.144;2022-08-21T04:32:57;13.80;99.90
31733;DHT22;18312;51.486;7.144;2022-08-21T04:35:26;13.80;99.90
31733;DHT22;18312;51.486;7.144;2022-08-21T04:37:53;13.70;99.90
31733;DHT22;18312;51.486;7.144;2022-08-21T04:40:20;13.60;99.90
31733;DHT22;18312;51.486;7.144;2022-08-21T04:42:50;13.60;99.90
31733;DHT22;18312;51.486;7.144;2022-08-21T04:45:19;13.70;99.90
31733;DHT22;18312;51.486;7.144;2022-08-21T04:47:50;13.70;99.90
31733;DHT22;18312;51.486;7.144;2022-08-21T04:50:22;13.70;99.90
31733;DHT22;18312;51.486;7.144;2022-08-21T04:52:50;13.70;99.90
31733;DHT22;18312;51.486;7.144;2022-08-21T04:55:24;13.80;99.90
31733;DHT22;18312;51.486;7.144;2022-08-21T04:57:53;13.80;99.90
31733;DHT22;18312;51.486;7.144;2022-08-21T05:00:29;13.80;99.90
31733;DHT22;18312;51.486;7.144;2022-08-21T05:03:00;13.90;99.90
31733;DHT22;18312;51.486;7.144;2022-08-21T05:05:31;14.10;99.90
31733;DHT22;18312;51.486;7.144;2022-08-21T05:07:59;14.20;99.90
31733;DHT22;18312;51.486;7.144;2022-08-21T05:10:27;14.30;99.90
31733;DHT22;18312;51.486;7.144;2022-08-21T05:12:54;14.50;99.90
31733;DHT22;18312;51.486;7.144;2022-08-21T05:15:21;14.50;99.90
31733;DHT22;18312;51.486;7.144;2022-08-21T05:17:51;14.50;99.90
31733;DHT22;18312;51.486;7.144;2022-08-21T05:20:19;14.50;99.90
31733;DHT22;18312;51.486;7.144;2022-08-21T05:22:46;14.60;99.90
31733;DHT22;18312;51.486;7.144;2022-08-21T05:25:15;14.80;99.90
31733;DHT22;18312;51.486;7.144;2022-08-21T05:27:42;14.80;99.90
31733;DHT22;18312;51.486;7.144;2022-08-21T05:30:10;15.00;99.90
31733;DHT22;18312;51.486;7.144;2022-08-21T05:32:37;15.10;99.90
31733;DHT22;18312;51.486;7.144;2022-08-21T05:35:05;15.20;99.90
31733;DHT22;18312;51.486;7.144;2022-08-21T05:37:39;15.20;99.90
31733;DHT22;18312;51.486;7.144;2022-08-21T05:40:07;15.30;99.90
31733;DHT22;18312;51.486;7.144;2022-08-21T05:42:37;15.30;99.90
31733;DHT22;18312;51.486;7.144;2022-08-21T05:45:04;15.40;99.90
31733;DHT22;18312;51.486;7.144;2022-08-21T05:47:31;15.50;99.90
31733;DHT22;18312;51.486;7.144;2022-08-21T05:49:58;15.50;99.90
31733;DHT22;18312;51.486;7.144;2022-08-21T05:52:25;15.60;99.90
31733;DHT22;18312;51.486;7.144;2022-08-21T05:54:53;15.70;99.90
31733;DHT22;18312;51.486;7.144;2022-08-21T05:57:21;15.80;99.90
31733;DHT22;18312;51.486;7.144;2022-08-21T05:59:48;15.90;99.90
31733;DHT22;18312;51.486;7.144;2022-08-21T06:02:17;16.00;99.90
31733;DHT22;18312;51.486;7.144;2022-08-21T06:04:43;16.10;99.90
31733;DHT22;18312;51.486;7.144;2022-08-21T06:07:10;16.20;99.90
31733;DHT22;18312;51.486;7.144;2022-08-21T06:09:37;16.30;99.90
31733;DHT22;18312;51.486;7.144;2022-08-21T06:12:07;16.40;99.90
31733;DHT22;18312;51.486;7.144;2022-08-21T06:14:35;16.60;99.90
31733;DHT22;18312;51.486;7.144;2022-08-21T06:17:03;16.60;99.90
31733;DHT22;18312;51.486;7.144;2022-08-21T06:19:30;16.70;99.90
31733;DHT22;18312;51.486;7.144;2022-08-21T06:21:56;16.80;99.90
31733;DHT22;18312;51.486;7.144;2022-08-21T06:24:26;16.90;99.90
31733;DHT22;18312;51.486;7.144;2022-08-21T06:26:53;17.50;99.90
31733;DHT22;18312;51.486;7.144;2022-08-21T06:29:24;19.00;99.90
31733;DHT22;18312;51.486;7.144;2022-08-21T06:31:51;20.00;99.90
31733;DHT22;18312;51.486;7.144;2022-08-21T06:34:18;20.10;99.90
31733;DHT22;18312;51.486;7.144;2022-08-21T06:36:45;19.50;99.90
31733;DHT22;18312;51.486;7.144;2022-08-21T06:39:11;19.20;99.90
31733;DHT22;18312;51.486;7.144;2022-08-21T06:41:40;18.70;99.90
31733;DHT22;18312;51.486;7.144;2022-08-21T06:44:06;18.50;99.90
31733;DHT22;18312;51.486;7.144;2022-08-21T06:46:34;18.30;99.90
31733;DHT22;18312;51.486;7.144;2022-08-21T06:49:02;18.20;99.90
31733;DHT22;18312;51.486;7.144;2022-08-21T06:51:29;18.30;99.90
31733;DHT22;18312;51.486;7.144;2022-08-21T06:53:55;18.70;99.90
31733;DHT22;18312;51.486;7.144;2022-08-21T06:56:22;19.30;99.90
31733;DHT22;18312;51.486;7.144;2022-08-21T06:58:49;20.50;99.90
31733;DHT22;18312;51.486;7.144;2022-08-21T07:01:16;20.30;99.90
31733;DHT22;18312;51.486;7.144;2022-08-21T07:03:44;19.80;99.90
31733;DHT22;18312;51.486;7.144;2022-08-21T07:06:11;20.00;99.90
31733;DHT22;18312;51.486;7.144;2022-08-21T07:08:38;20.60;99.90
31733;DHT22;18312;51.486;7.144;2022-08-21T07:11:09;20.40;99.90
31733;DHT22;18312;51.486;7.144;2022-08-21T07:13:37;20.00;99.90
31733;DHT22;18312;51.486;7.144;2022-08-21T07:16:05;19.50;99.90
31733;DHT22;18312;51.486;7.144;2022-08-21T07:18:36;19.30;99.90
31733;DHT22;18312;51.486;7.144;2022-08-21T07:21:08;19.20;99.90
31733;DHT22;18312;51.486;7.144;2022-08-21T07:23:40;19.10;99.90
31733;DHT22;18312;51.486;7.144;2022-08-21T07:26:08;19.10;99.90
31733;DHT22;18312;51.486;7.144;2022-08-21T07:28:34;19.20;99.90
31733;DHT22;18312;51.486;7.144;2022-08-21T07:31:02;19.10;99.90
31733;DHT22;18312;51.486;7.144;2022-08-21T07:33:32;19.00;99.90
31733;DHT22;18312;51.486;7.144;2022-08-21T07:35:59;19.00;99.90
31733;DHT22;18312;51.486;7.144;2022-08-21T07:38:27;19.10;99.90
31733;DHT22;18312;51.486;7.144;2022-08-21T07:40:55;19.10;99.90
31733;DHT22;18312;51.486;7.144;2022-08-21T07:43:24;19.20;99.90
31733;DHT22;18312;51.486;7.144;2022-08-21T07:45:51;19.30;99.90
31733;DHT22;18312;51.486;7.144;2022-08-21T07:48:19;19.40;99.90
31733;DHT22;18312;51.486;7.144;2022-08-21T07:50:46;19.40;99.90
31733;DHT22;18312;51.486;7.144;2022-08-21T07:53:13;19.50;99.90
31733;DHT22;18312;51.486;7.144;2022-08-21T07:55:44;19.70;99.90
31733;DHT22;18312;51.486;7.144;2022-08-21T07:58:11;19.60;99.90
31733;DHT22;18312;51.486;7.144;2022-08-21T08:00:38;19.60;99.90
31733;DHT22;18312;51.486;7.144;2022-08-21T08:03:05;19.70;99.90
31733;DHT22;18312;51.486;7.144;2022-08-21T08:05:32;19.60;99.90
31733;DHT22;18312;51.486;7.144;2022-08-21T08:08:02;19.70;99.90
31733;DHT22;18312;51.486;7.144;2022-08-21T08:10:29;19.70;99.90
31733;DHT22;18312;51.486;7.144;2022-08-21T08:12:57;19.80;99.90
31733;DHT22;18312;51.486;7.144;2022-08-21T08:15:26;20.00;99.90
31733;DHT22;18312;51.486;7.144;2022-08-21T08:17:54;19.90;99.90
31733;DHT22;18312;51.486;7.144;2022-08-21T08:20:21;19.90;99.90
31733;DHT22;18312;51.486;7.144;2022-08-21T08:22:49;20.00;99.90
31733;DHT22;18312;51.486;7.144;2022-08-21T08:25:16;20.10;99.90
31733;DHT22;18312;51.486;7.144;2022-08-21T08:27:43;20.10;99.90
31733;DHT22;18312;51.486;7.144;2022-08-21T08:30:13;20.10;99.90
31733;DHT22;18312;51.486;7.144;2022-08-21T08:32:47;20.30;99.90
31733;DHT22;18312;51.486;7.144;2022-08-21T08:35:17;20.30;99.90
31733;DHT22;18312;51.486;7.144;2022-08-21T08:37:44;20.40;99.90
31733;DHT22;18312;51.486;7.144;2022-08-21T08:40:12;20.40;99.90
31733;DHT22;18312;51.486;7.144;2022-08-21T08:42:40;20.40;99.90
31733;DHT22;18312;51.486;7.144;2022-08-21T08:45:10;20.50;99.90
31733;DHT22;18312;51.486;7.144;2022-08-21T08:47:42;20.50;99.90
31733;DHT22;18312;51.486;7.144;2022-08-21T08:50:13;20.70;99.90
31733;DHT22;18312;51.486;7.144;2022-08-21T08:52:47;20.70;99.90
31733;DHT22;18312;51.486;7.144;2022-08-21T08:55:21;20.80;99.90
31733;DHT22;18312;51.486;7.144;2022-08-21T08:57:51;20.80;99.90
31733;DHT22;18312;51.486;7.144;2022-08-21T09:00:21;21.00;99.90
31733;DHT22;18312;51.486;7.144;2022-08-21T09:02:53;21.10;99.90
31733;DHT22;18312;51.486;7.144;2022-08-21T09:05:22;21.10;99.90
31733;DHT22;18312;51.486;7.144;2022-08-21T09:08:00;21.00;99.90
31733;DHT22;18312;51.486;7.144;2022-08-21T09:10:37;21.30;99.90
31733;DHT22;18312;51.486;7.144;2022-08-21T09:13:14;21.30;99.90
31733;DHT22;18312;51.486;7.144;2022-08-21T09:15:49;21.40;99.90
31733;DHT22;18312;51.486;7.144;2022-08-21T09:18:32;21.60;99.90
31733;DHT22;18312;51.486;7.144;2022-08-21T09:21:16;21.70;99.90
31733;DHT22;18312;51.486;7.144;2022-08-21T09:23:54;22.30;99.90
31733;DHT22;18312;51.486;7.144;2022-08-21T09:26:24;22.70;97.10
31733;DHT22;18312;51.486;7.144;2022-08-21T09:29:00;22.40;96.50
31733;DHT22;18312;51.486;7.144;2022-08-21T09:31:29;22.50;98.60
31733;DHT22;18312;51.486;7.144;2022-08-21T09:34:02;22.50;96.00
31733;DHT22;18312;51.486;7.144;2022-08-21T09:36:37;22.60;94.50
31733;DHT22;18312;51.486;7.144;2022-08-21T09:39:08;22.70;95.50
31733;DHT22;18312;51.486;7.144;2022-08-21T09:41:37;23.00;93.90
31733;DHT22;18312;51.486;7.144;2022-08-21T09:44:05;23.70;91.70
31733;DHT22;18312;51.486;7.144;2022-08-21T09:46:33;24.20;90.70
31733;DHT22;18312;51.486;7.144;2022-08-21T09:49:04;26.20;87.10
31733;DHT22;18312;51.486;7.144;2022-08-21T09:51:33;27.90;73.30
31733;DHT22;18312;51.486;7.144;2022-08-21T09:54:10;28.60;69.40
31733;DHT22;18312;51.486;7.144;2022-08-21T09:56:51;28.40;67.40
31733;DHT22;18312;51.486;7.144;2022-08-21T09:59:36;28.10;65.90
31733;DHT22;18312;51.486;7.144;2022-08-21T10:02:25;26.10;70.20
31733;DHT22;18312;51.486;7.144;2022-08-21T10:04:54;25.70;71.30
31733;DHT22;18312;51.486;7.144;2022-08-21T10:07:24;25.20;72.60
31733;DHT22;18312;51.486;7.144;2022-08-21T10:09:59;25.00;74.80
31733;DHT22;18312;51.486;7.144;2022-08-21T10:12:33;24.70;75.30
31733;DHT22;18312;51.486;7.144;2022-08-21T10:15:10;24.80;76.80
31733;DHT22;18312;51.486;7.144;2022-08-21T10:17:46;24.90;78.10
31733;DHT22;18312;51.486;7.144;2022-08-21T10:20:21;24.80;76.00
31733;DHT22;18312;51.486;7.144;2022-08-21T10:23:01;24.90;75.50
31733;DHT22;18312;51.486;7.144;2022-08-21T10:25:32;24.90;76.60
31733;DHT22;18312;51.486;7.144;2022-08-21T10:28:08;25.00;75.80
31733;DHT22;18312;51.486;7.144;2022-08-21T10:30:46;24.90;76.90
31733;DHT22;18312;51.486;7.144;2022-08-21T10:33:28;24.70;75.50
31733;DHT22;18312;51.486;7.144;2022-08-21T10:36:06;24.90;76.60
31733;DHT22;18312;51.486;7.144;2022-08-21T10:38:58;24.40;76.30
31733;DHT22;18312;51.486;7.144;2022-08-21T10:41:39;24.40;75.40
31733;DHT22;18312;51.486;7.144;2022-08-21T10:44:17;24.60;75.90
31733;DHT22;18312;51.486;7.144;2022-08-21T10:46:53;24.60;73.40
31733;DHT22;18312;51.486;7.144;2022-08-21T10:49:25;24.70;73.70
31733;DHT22;18312;51.486;7.144;2022-08-21T10:52:18;24.80;74.60
31733;DHT22;18312;51.486;7.144;2022-08-21T10:54:52;24.90;72.00
31733;DHT22;18312;51.486;7.144;2022-08-21T10:57:27;25.00;74.00
31733;DHT22;18312;51.486;7.144;2022-08-21T11:00:04;25.30;72.70
31733;DHT22;18312;51.486;7.144;2022-08-21T11:02:37;25.40;71.40
31733;DHT22;18312;51.486;7.144;2022-08-21T11:05:10;25.10;70.30
31733;DHT22;18312;51.486;7.144;2022-08-21T11:07:49;25.10;72.10
31733;DHT22;18312;51.486;7.144;2022-08-21T11:10:25;25.30;72.00
31733;DHT22;18312;51.486;7.144;2022-08-21T11:12:54;25.40;72.00
31733;DHT22;18312;51.486;7.144;2022-08-21T11:15:31;25.00;72.70
31733;DHT22;18312;51.486;7.144;2022-08-21T11:18:08;25.10;72.00
31733;DHT22;18312;51.486;7.144;2022-08-21T11:20:41;25.30;73.20
31733;DHT22;18312;51.486;7.144;2022-08-21T11:23:13;25.50;71.30
31733;DHT22;18312;51.486;7.144;2022-08-21T11:25:44;25.30;69.10
31733;DHT22;18312;51.486;7.144;2022-08-21T11:28:17;25.10;68.60
31733;DHT22;18312;51.486;7.144;2022-08-21T11:30:52;25.40;69.40
31733;DHT22;18312;51.486;7.144;2022-08-21T11:33:31;25.50;69.30
31733;DHT22;18312;51.486;7.144;2022-08-21T11:36:10;25.60;69.80
31733;DHT22;18312;51.486;7.144;2022-08-21T11:38:45;25.60;70.00
31733;DHT22;18312;51.486;7.144;2022-08-21T11:41:25;25.60;69.90
31733;DHT22;18312;51.486;7.144;2022-08-21T11:44:02;25.90;70.30
31733;DHT22;18312;51.486;7.144;2022-08-21T11:46:38;25.70;69.50
31733;DHT22;18312;51.486;7.144;2022-08-21T11:49:21;25.70;71.00
31733;DHT22;18312;51.486;7.144;2022-08-21T11:51:53;25.90;69.40
31733;DHT22;18312;51.486;7.144;2022-08-21T11:54:28;26.00;70.20
31733;DHT22;18312;51.486;7.144;2022-08-21T11:57:03;26.20;69.60
31733;DHT22;18312;51.486;7.144;2022-08-21T11:59:36;26.20;69.50
31733;DHT22;18312;51.486;7.144;2022-08-21T12:02:12;26.20;69.20
31733;DHT22;18312;51.486;7.144;2022-08-21T12:04:45;25.60;70.00
31733;DHT22;18312;51.486;7.144;2022-08-21T12:07:15;25.60;70.40
31733;DHT22;18312;51.486;7.144;2022-08-21T12:09:52;26.00;71.00
31733;DHT22;18312;51.486;7.144;2022-08-21T12:12:25;26.00;71.90
31733;DHT22;18312;51.486;7.144;2022-08-21T12:15:13;26.10;69.70
31733;DHT22;18312;51.486;7.144;2022-08-21T12:17:51;26.60;69.20
31733;DHT22;18312;51.486;7.144;2022-08-21T12:20:26;26.70;69.50
31733;DHT22;18312;51.486;7.144;2022-08-21T12:23:04;26.60;69.50
31733;DHT22;18312;51.486;7.144;2022-08-21T12:25:38;26.60;68.40
31733;DHT22;18312;51.486;7.144;2022-08-21T12:28:10;26.80;69.00
31733;DHT22;18312;51.486;7.144;2022-08-21T12:30:42;27.00;68.00
31733;DHT22;18312;51.486;7.144;2022-08-21T12:33:20;27.00;68.50
31733;DHT22;18312;51.486;7.144;2022-08-21T12:35:49;27.20;67.20
31733;DHT22;18312;51.486;7.144;2022-08-21T12:38:19;27.60;68.70
31733;DHT22;18312;51.486;7.144;2022-08-21T12:40:52;27.20;65.30
31733;DHT22;18312;51.486;7.144;2022-08-21T12:43:24;27.20;65.90
31733;DHT22;18312;51.486;7.144;2022-08-21T12:45:52;27.60;66.20
31733;DHT22;18312;51.486;7.144;2022-08-21T12:48:23;27.90;67.40
31733;DHT22;18312;51.486;7.144;2022-08-21T12:50:56;27.70;63.80
31733;DHT22;18312;51.486;7.144;2022-08-21T12:53:28;27.10;65.50
31733;DHT22;18312;51.486;7.144;2022-08-21T12:55:57;27.00;66.20
31733;DHT22;18312;51.486;7.144;2022-08-21T12:58:32;27.00;65.80
31733;DHT22;18312;51.486;7.144;2022-08-21T13:01:02;27.30;64.90
31733;DHT22;18312;51.486;7.144;2022-08-21T13:03:36;27.30;65.70
31733;DHT22;18312;51.486;7.144;2022-08-21T13:06:04;27.20;64.80
31733;DHT22;18312;51.486;7.144;2022-08-21T13:08:35;27.40;65.00
31733;DHT22;18312;51.486;7.144;2022-08-21T13:11:06;27.30;65.40
31733;DHT22;18312;51.486;7.144;2022-08-21T13:13:33;27.10;66.30
31733;DHT22;18312;51.486;7.144;2022-08-21T13:16:03;26.80;65.50
31733;DHT22;18312;51.486;7.144;2022-08-21T13:18:33;27.30;64.70
31733;DHT22;18312;51.486;7.144;2022-08-21T13:21:09;27.40;65.60
31733;DHT22;18312;51.486;7.144;2022-08-21T13:23:38;27.50;63.90
31733;DHT22;18312;51.486;7.144;2022-08-21T13:26:13;27.10;63.20
31733;DHT22;18312;51.486;7.144;2022-08-21T13:28:40;27.10;63.60
31733;DHT22;18312;51.486;7.144;2022-08-21T13:31:10;27.30;64.60
31733;DHT22;18312;51.486;7.144;2022-08-21T13:33:38;27.50;65.50
31733;DHT22;18312;51.486;7.144;2022-08-21T13:36:10;28.00;64.90
31733;DHT22;18312;51.486;7.144;2022-08-21T13:38:40;27.70;64.30
31733;DHT22;18312;51.486;7.144;2022-08-21T13:41:21;27.20;64.00
31733;DHT22;18312;51.486;7.144;2022-08-21T13:43:51;26.40;64.70
31733;DHT22;18312;51.486;7.144;2022-08-21T13:46:22;26.90;64.90
31733;DHT22;18312;51.486;7.144;2022-08-21T13:48:53;27.10;64.80
31733;DHT22;18312;51.486;7.144;2022-08-21T13:51:21;27.20;64.90
31733;DHT22;18312;51.486;7.144;2022-08-21T13:53:49;27.50;63.90
31733;DHT22;18312;51.486;7.144;2022-08-21T13:56:27;28.00;64.00
31733;DHT22;18312;51.486;7.144;2022-08-21T13:58:56;28.40;61.70
31733;DHT22;18312;51.486;7.144;2022-08-21T14:01:28;28.60;61.50
31733;DHT22;18312;51.486;7.144;2022-08-21T14:04:01;28.40;62.20
31733;DHT22;18312;51.486;7.144;2022-08-21T14:06:33;28.70;61.90
31733;DHT22;18312;51.486;7.144;2022-08-21T14:09:07;28.80;59.90
31733;DHT22;18312;51.486;7.144;2022-08-21T14:11:38;28.40;60.40
31733;DHT22;18312;51.486;7.144;2022-08-21T14:14:16;28.70;60.70
31733;DHT22;18312;51.486;7.144;2022-08-21T14:16:52;28.60;60.50
31733;DHT22;18312;51.486;7.144;2022-08-21T14:19:22;28.80;60.20
31733;DHT22;18312;51.486;7.144;2022-08-21T14:21:49;28.40;60.90
31733;DHT22;18312;51.486;7.144;2022-08-21T14:24:26;28.40;60.20
31733;DHT22;18312;51.486;7.144;2022-08-21T14:27:02;28.20;59.00
31733;DHT22;18312;51.486;7.144;2022-08-21T14:29:36;27.50;58.20
31733;DHT22;18312;51.486;7.144;2022-08-21T14:32:13;27.00;59.30
31733;DHT22;18312;51.486;7.144;2022-08-21T14:34:40;27.00;60.90
31733;DHT22;18312;51.486;7.144;2022-08-21T14:37:07;26.80;60.60
31733;DHT22;18312;51.486;7.144;2022-08-21T14:39:36;26.30;61.30
31733;DHT22;18312;51.486;7.144;2022-08-21T14:42:05;26.20;61.60
31733;DHT22;18312;51.486;7.144;2022-08-21T14:44:31;26.50;61.90
31733;DHT22;18312;51.486;7.144;2022-08-21T14:46:59;26.60;61.90
31733;DHT22;18312;51.486;7.144;2022-08-21T14:49:28;26.40;60.80
31733;DHT22;18312;51.486;7.144;2022-08-21T14:52:02;26.50;61.10
31733;DHT22;18312;51.486;7.144;2022-08-21T14:54:31;26.30;61.10
31733;DHT22;18312;51.486;7.144;2022-08-21T14:57:01;26.40;62.20
31733;DHT22;18312;51.486;7.144;2022-08-21T14:59:30;26.50;63.40
31733;DHT22;18312;51.486;7.144;2022-08-21T15:02:01;26.50;63.40
31733;DHT22;18312;51.486;7.144;2022-08-21T15:04:33;26.50;64.20
31733;DHT22;18312;51.486;7.144;2022-08-21T15:07:00;26.70;62.90
31733;DHT22;18312;51.486;7.144;2022-08-21T15:09:28;26.80;63.20
31733;DHT22;18312;51.486;7.144;2022-08-21T15:11:57;27.00;62.90
31733;DHT22;18312;51.486;7.144;2022-08-21T15:14:30;27.50;63.10
31733;DHT22;18312;51.486;7.144;2022-08-21T15:16:57;27.40;61.30
31733;DHT22;18312;51.486;7.144;2022-08-21T15:19:27;28.30;62.40
31733;DHT22;18312;51.486;7.144;2022-08-21T15:21:56;27.90;63.00
31733;DHT22;18312;51.486;7.144;2022-08-21T15:24:26;27.80;62.50
31733;DHT22;18312;51.486;7.144;2022-08-21T15:26:54;27.70;61.80
31733;DHT22;18312;51.486;7.144;2022-08-21T15:29:21;28.40;62.00
31733;DHT22;18312;51.486;7.144;2022-08-21T15:31:55;28.00;60.50
31733;DHT22;18312;51.486;7.144;2022-08-21T15:34:23;27.80;61.20
31733;DHT22;18312;51.486;7.144;2022-08-21T15:36:53;28.40;62.20
31733;DHT22;18312;51.486;7.144;2022-08-21T15:39:23;28.40;61.60
31733;DHT22;18312;51.486;7.144;2022-08-21T15:41:52;28.30;60.20
31733;DHT22;18312;51.486;7.144;2022-08-21T15:44:19;29.10;60.10
31733;DHT22;18312;51.486;7.144;2022-08-21T15:46:50;29.50;58.70
31733;DHT22;18312;51.486;7.144;2022-08-21T15:49:20;28.20;61.20